Time;durP1;ratioP1;P1;durP2;ratioP2;P2;SDS_P1;SDS_P2;PMS_P1;PMS_P2;Temp;Humidity;BMP_temperature;BMP_pressure;BME280_temperature;BME280_humidity;BME280_pressure;Samples;Min_cycle;Max_cycle;Signal;HPM_P1;HPM_P2
2023/04/17 00:01:29;;;;;;;2.75;2.00;;;;;;;13.50;69.99;99944.09;5070710;28;20051;-69
2023/04/17 00:03:56;;;;;;;2.30;2.10;;;;;;;13.51;69.33;99944.91;5088562;28;20396;-68
2023/04/17 00:06:22;;;;;;;5.57;2.10;;;;;;;13.44;69.94;99939.34;5089057;28;20040;-68
2023/04/17 00:08:48;;;;;;;2.83;2.03;;;;;;;13.36;69.33;99928.53;5088678;28;20157;-69
2023/04/17 00:11:14;;;;;;;2.63;2.05;;;;;;;13.44;69.02;99938.47;5089225;28;20099;-69
2023/04/17 00:13:40;;;;;;;2.65;2.28;;;;;;;13.52;69.31;99952.00;5088462;28;20040;-69
2023/04/17 00:16:09;;;;;;;5.82;1.88;;;;;;;13.50;68.75;99946.78;5089085;28;20905;-72
2023/04/17 00:18:34;;;;;;;2.67;1.77;;;;;;;13.37;69.04;99927.53;5070352;28;20020;-72
2023/04/17 00:21:00;;;;;;;5.07;2.90;;;;;;;13.54;69.17;99947.28;5066232;28;20033;-72
2023/04/17 00:23:25;;;;;;;6.32;3.28;;;;;;;13.54;68.88;99950.84;5066591;28;20772;-69
2023/04/17 00:25:51;;;;;;;6.22;2.92;;;;;;;13.56;68.53;99956.06;5068206;28;20043;-69
2023/04/17 00:28:17;;;;;;;4.10;2.70;;;;;;;13.56;68.98;99948.84;5068040;28;20044;-69
2023/04/17 00:30:42;;;;;;;4.47;2.58;;;;;;;13.45;68.71;99932.13;5067337;28;20034;-68
2023/04/17 00:33:08;;;;;;;5.35;2.75;;;;;;;13.51;68.34;99944.91;5066537;28;20102;-68
2023/04/17 00:35:33;;;;;;;7.78;2.95;;;;;;;13.56;68.80;99953.38;5065499;28;20456;-69
2023/04/17 00:37:59;;;;;;;3.25;2.25;;;;;;;13.45;68.66;99937.50;5067811;28;20105;-69
2023/04/17 00:40:24;;;;;;;4.55;2.70;;;;;;;13.51;68.76;99936.81;5066524;28;20032;-69
2023/04/17 00:42:52;;;;;;;6.00;3.17;;;;;;;13.54;68.71;99937.34;5067292;28;20032;-68
2023/04/17 00:45:19;;;;;;;3.22;2.58;;;;;;;13.44;68.51;99919.63;5068264;28;20032;-69
2023/04/17 00:47:46;;;;;;;5.40;2.33;;;;;;;13.53;68.06;99943.75;5067543;28;20099;-69
2023/04/17 00:50:12;;;;;;;5.03;2.80;;;;;;;13.47;68.33;99932.78;5066267;28;20094;-69
2023/04/17 00:52:38;;;;;;;3.92;2.92;;;;;;;13.44;68.12;99931.25;5067561;28;20094;-68
2023/04/17 00:55:04;;;;;;;2.72;2.35;;;;;;;13.52;68.38;99938.53;5067064;28;20024;-69
2023/04/17 00:57:29;;;;;;;2.33;2.13;;;;;;;13.44;68.23;99927.72;5067519;28;20047;-68
2023/04/17 00:59:56;;;;;;;4.05;2.60;;;;;;;13.53;68.18;99951.00;5066983;28;20027;-69
2023/04/17 01:02:22;;;;;;;2.83;2.42;;;;;;;13.52;67.68;99947.44;5067169;28;20040;-69
2023/04/17 01:04:47;;;;;;;4.95;2.13;;;;;;;13.53;67.50;99945.59;5067822;28;20070;-69
2023/04/17 01:07:13;;;;;;;3.60;2.33;;;;;;;13.53;67.75;99953.69;5066801;28;20140;-69
2023/04/17 01:09:38;;;;;;;4.13;2.10;;;;;;;13.52;68.14;99943.94;5067353;28;20752;-72
2023/04/17 01:12:21;;;;;;;5.18;2.50;;;;;;;13.39;67.57;99927.38;5066452;28;20048;-69
2023/04/17 01:14:54;;;;;;;3.20;2.45;;;;;;;13.55;68.18;99957.06;5063293;28;20025;-69
2023/04/17 01:17:20;;;;;;;3.40;2.70;;;;;;;13.49;67.65;99945.09;5068560;28;20480;-69
2023/04/17 01:19:47;;;;;;;4.30;2.78;;;;;;;13.53;67.54;99942.91;5074584;28;20109;-69
2023/04/17 01:22:15;;;;;;;3.47;2.80;;;;;;;13.52;67.29;99944.75;5087183;28;20032;-69
2023/04/17 01:24:41;;;;;;;3.22;2.20;;;;;;;13.52;67.48;99943.94;5086844;28;20391;-69
2023/04/17 01:27:07;;;;;;;3.70;2.58;;;;;;;13.45;67.71;99930.25;5086431;28;20440;-69
2023/04/17 01:29:33;;;;;;;4.28;2.80;;;;;;;13.29;67.45;99905.09;5068583;28;20115;-69
2023/04/17 01:31:59;;;;;;;5.00;3.35;;;;;;;13.52;67.06;99935.84;5086964;28;20028;-69
2023/04/17 01:34:24;;;;;;;6.25;3.28;;;;;;;13.36;67.12;99912.38;5086818;28;20105;-69
2023/04/17 01:36:50;;;;;;;5.88;3.70;;;;;;;13.37;66.46;99895.22;5086577;28;20032;-68
2023/04/17 01:39:16;;;;;;;6.38;3.55;;;;;;;13.47;66.38;99905.84;5086925;28;20020;-69
2023/04/17 01:41:41;;;;;;;4.93;3.38;;;;;;;13.53;66.32;99924.06;5086696;28;20433;-69
2023/04/17 01:44:07;;;;;;;10.80;3.50;;;;;;;13.48;66.39;99912.94;5087019;28;20036;-69
2023/04/17 01:46:32;;;;;;;5.28;3.10;;;;;;;13.51;67.00;99918.81;5086498;28;20050;-69
2023/04/17 01:48:58;;;;;;;4.43;3.45;;;;;;;13.50;66.77;99919.84;5086370;28;20035;-71
2023/04/17 01:51:24;;;;;;;4.43;3.45;;;;;;;13.41;66.73;99907.34;5086717;28;20042;-71
2023/04/17 01:53:49;;;;;;;7.30;3.55;;;;;;;13.50;66.40;99921.69;5086747;28;20024;-69
2023/04/17 01:56:14;;;;;;;5.55;3.67;;;;;;;13.43;67.02;99913.41;5086264;28;20028;-69
2023/04/17 01:58:40;;;;;;;5.25;3.67;;;;;;;13.46;66.81;99915.78;5086269;28;20048;-69
2023/04/17 02:01:05;;;;;;;4.68;3.58;;;;;;;13.44;67.45;99908.84;5068445;28;20063;-72
2023/04/17 02:03:31;;;;;;;3.95;3.55;;;;;;;13.49;67.35;99914.63;5067349;28;20028;-72
2023/04/17 02:05:57;;;;;;;6.30;3.65;;;;;;;13.49;67.10;99920.00;5086668;28;20719;-72
2023/04/17 02:08:23;;;;;;;8.27;4.55;;;;;;;13.50;67.25;99916.28;5067813;28;20482;-69
2023/04/17 02:10:49;;;;;;;8.88;3.80;;;;;;;13.49;67.81;99928.94;5086473;28;20024;-69
2023/04/17 02:13:15;;;;;;;4.65;3.97;;;;;;;13.47;67.58;99932.78;5067761;28;20020;-69
2023/04/17 02:15:41;;;;;;;6.07;4.20;;;;;;;13.44;67.53;99933.94;5086293;28;20034;-69
2023/04/17 02:18:07;;;;;;;5.95;3.80;;;;;;;13.43;67.87;99931.41;5086482;28;20024;-70
2023/04/17 02:20:36;;;;;;;4.78;3.72;;;;;;;13.44;68.50;99938.47;5085799;28;20055;-69
2023/04/17 02:23:03;;;;;;;7.15;4.38;;;;;;;13.38;68.39;99931.03;5086144;28;20047;-69
2023/04/17 02:25:29;;;;;;;4.97;3.83;;;;;;;13.43;68.43;99936.81;5088406;28;20042;-70
2023/04/17 02:27:55;;;;;;;7.70;4.75;;;;;;;13.36;68.73;99930.38;5089764;28;20028;-69
2023/04/17 02:30:22;;;;;;;5.05;3.63;;;;;;;13.27;69.17;99913.34;5090252;28;20093;-69
2023/04/17 02:32:52;;;;;;;6.47;4.30;;;;;;;13.33;68.92;99930.72;5089871;28;20032;-69
2023/04/17 02:35:22;;;;;;;6.63;3.75;;;;;;;13.21;69.08;99910.44;5089872;28;20051;-69
2023/04/17 02:37:48;;;;;;;6.47;4.50;;;;;;;13.36;68.70;99939.31;5089512;28;20089;-69
2023/04/17 02:40:14;;;;;;;6.75;4.88;;;;;;;13.34;69.36;99940.47;5089856;28;20043;-69
2023/04/17 02:42:39;;;;;;;6.22;4.57;;;;;;;13.33;69.62;99930.72;5089883;28;20024;-69
2023/04/17 02:45:05;;;;;;;6.28;4.43;;;;;;;13.37;69.97;99938.31;5089973;28;20589;-70
2023/04/17 02:47:31;;;;;;;5.03;3.85;;;;;;;13.34;69.58;99944.00;5071499;28;20403;-69
2023/04/17 02:49:58;;;;;;;6.28;4.85;;;;;;;13.33;69.97;99936.09;5089885;28;20111;-69
2023/04/17 02:52:25;;;;;;;6.45;4.40;;;;;;;13.33;70.61;99936.94;5089527;28;20044;-69
2023/04/17 02:54:50;;;;;;;6.03;4.70;;;;;;;13.21;70.41;99922.06;5089882;28;20020;-69
2023/04/17 02:57:16;;;;;;;5.82;4.43;;;;;;;13.14;70.94;99926.41;5089754;28;21243;-70
2023/04/17 02:59:41;;;;;;;6.40;4.60;;;;;;;13.25;71.26;99938.72;5089905;28;20464;-69
2023/04/17 03:02:06;;;;;;;6.57;4.85;;;;;;;13.13;71.03;99921.19;5089451;28;20430;-69
2023/04/17 03:04:33;;;;;;;7.15;4.95;;;;;;;13.25;71.75;99941.44;5089119;28;20071;-69
2023/04/17 03:06:59;;;;;;;8.07;5.05;;;;;;;13.27;71.48;99945.66;5089501;28;20024;-69
2023/04/17 03:09:25;;;;;;;6.00;4.55;;;;;;;13.24;71.45;99945.13;5088762;28;20045;-69
2023/04/17 03:11:51;;;;;;;6.80;5.10;;;;;;;13.21;72.39;99945.44;5089712;28;20027;-69
2023/04/17 03:14:16;;;;;;;6.97;4.53;;;;;;;13.21;72.11;99942.75;5089149;28;20115;-69
2023/04/17 03:16:41;;;;;;;6.60;4.65;;;;;;;13.20;72.86;99947.31;5089550;28;20024;-69
2023/04/17 03:19:07;;;;;;;7.00;5.05;;;;;;;13.13;73.13;99934.66;5088711;28;20028;-69
2023/04/17 03:21:32;;;;;;;9.00;4.97;;;;;;;13.16;72.97;99945.94;5070881;28;20042;-69
2023/04/17 03:23:58;;;;;;;8.73;5.63;;;;;;;13.17;73.37;99944.09;5088966;28;20123;-69
2023/04/17 03:26:23;;;;;;;6.28;5.32;;;;;;;13.06;74.42;99941.69;5089206;28;20372;-68
2023/04/17 03:28:49;;;;;;;10.20;5.38;;;;;;;12.98;73.97;99937.06;5089170;28;20124;-69
2023/04/17 03:31:14;;;;;;;7.70;5.93;;;;;;;12.92;74.94;99934.16;5088539;28;20039;-69
2023/04/17 03:33:40;;;;;;;9.85;5.80;;;;;;;12.87;74.98;99920.34;5088970;28;20027;-69
2023/04/17 03:36:06;;;;;;;8.48;5.93;;;;;;;12.98;75.58;99947.81;5088426;28;20097;-69
2023/04/17 03:38:32;;;;;;;8.20;6.45;;;;;;;12.94;75.79;99942.91;5088725;28;20059;-69
2023/04/17 03:40:58;;;;;;;8.90;6.25;;;;;;;12.87;75.77;99944.56;5070342;28;20477;-70
2023/04/17 03:43:23;;;;;;;7.47;5.97;;;;;;;12.82;75.85;99941.47;5088854;28;20031;-69
2023/04/17 03:45:49;;;;;;;9.20;6.47;;;;;;;12.90;76.19;99960.41;5088504;28;20043;-69
2023/04/17 03:48:14;;;;;;;7.50;6.13;;;;;;;12.85;76.25;99954.63;5087815;28;20349;-69
2023/04/17 03:50:40;;;;;;;9.52;6.05;;;;;;;12.81;76.61;99953.25;5088029;28;20040;-69
2023/04/17 03:53:05;;;;;;;9.95;6.07;;;;;;;12.68;77.60;99940.22;5088480;28;20028;-69
2023/04/17 03:55:31;;;;;;;9.10;6.60;;;;;;;12.61;77.80;99932.94;5070200;28;20515;-69
2023/04/17 03:57:57;;;;;;;8.35;5.25;;;;;;;12.69;77.74;99952.66;5088543;28;20054;-69
2023/04/17 04:00:23;;;;;;;9.02;5.78;;;;;;;12.58;77.93;99941.31;5070700;28;20072;-69
2023/04/17 04:02:49;;;;;;;8.30;6.35;;;;;;;12.49;78.43;99935.03;5070171;28;20071;-69
2023/04/17 04:05:15;;;;;;;8.93;6.45;;;;;;;12.55;78.81;99947.88;5088372;28;20487;-69
2023/04/17 04:07:40;;;;;;;11.25;5.72;;;;;;;12.52;78.78;99952.69;5087633;28;20043;-69
2023/04/17 04:10:06;;;;;;;8.82;6.30;;;;;;;12.58;78.60;99957.47;5087739;28;20032;-69
2023/04/17 04:12:32;;;;;;;12.18;6.82;;;;;;;12.47;79.03;99944.25;5069511;28;20028;-69
2023/04/17 04:14:57;;;;;;;10.63;6.30;;;;;;;12.57;79.38;99970.06;5088534;28;20031;-69
2023/04/17 04:17:23;;;;;;;9.18;6.63;;;;;;;12.55;79.63;99960.47;5091017;28;20036;-68
2023/04/17 04:19:48;;;;;;;11.27;6.38;;;;;;;12.54;79.94;99969.53;5085500;28;20032;-69
2023/04/17 04:22:14;;;;;;;8.77;6.22;;;;;;;12.44;79.42;99949.91;5088122;28;20032;-69
2023/04/17 04:24:39;;;;;;;8.73;6.53;;;;;;;12.45;80.39;99951.63;5091009;28;20061;-70
2023/04/17 04:27:06;;;;;;;7.75;6.63;;;;;;;12.53;80.46;99974.06;5088520;28;20035;-69
2023/04/17 04:29:32;;;;;;;9.98;6.07;;;;;;;12.47;80.46;99972.00;5070018;28;20116;-68
2023/04/17 04:31:58;;;;;;;9.63;5.70;;;;;;;12.53;80.84;99973.22;5088179;28;20476;-69
2023/04/17 04:34:24;;;;;;;12.32;6.60;;;;;;;12.51;80.75;99986.00;5088381;28;20061;-69
2023/04/17 04:36:53;;;;;;;9.88;6.90;;;;;;;12.36;80.50;99950.72;5069307;28;20399;-70
2023/04/17 04:39:19;;;;;;;9.23;6.22;;;;;;;12.49;80.86;99969.16;5071683;28;20683;-68
2023/04/17 04:41:49;;;;;;;10.15;6.80;;;;;;;12.42;81.27;99965.38;5071166;28;20118;-69
2023/04/17 04:44:15;;;;;;;12.80;7.57;;;;;;;12.52;81.61;99982.28;5088171;28;20020;-69
2023/04/17 04:46:40;;;;;;;7.82;6.68;;;;;;;12.53;81.17;99989.34;5087746;28;20031;-69
2023/04/17 04:49:06;;;;;;;7.90;6.18;;;;;;;12.55;80.84;99992.75;5087609;28;20032;-69
2023/04/17 04:51:33;;;;;;;9.88;7.13;;;;;;;12.53;81.11;99983.97;5087849;28;20036;-68
2023/04/17 04:53:58;;;;;;;9.55;6.80;;;;;;;12.57;81.41;99985.34;5088187;28;20377;-68
2023/04/17 04:56:24;;;;;;;10.10;7.00;;;;;;;12.54;81.37;99983.00;5088062;28;20051;-69
2023/04/17 04:58:49;;;;;;;8.20;6.22;;;;;;;12.58;81.82;99987.88;5088082;28;20019;-69
2023/04/17 05:01:16;;;;;;;8.85;6.25;;;;;;;12.61;81.74;99992.13;5087704;28;20028;-69
2023/04/17 05:03:43;;;;;;;7.22;6.28;;;;;;;12.49;81.54;99961.94;5069616;28;20020;-68
2023/04/17 05:06:10;;;;;;;11.07;6.05;;;;;;;12.67;81.81;99994.19;5087797;28;20046;-69
2023/04/17 05:08:36;;;;;;;8.70;6.47;;;;;;;12.57;81.59;99978.13;5087747;28;20026;-69
2023/04/17 05:11:01;;;;;;;9.40;6.43;;;;;;;12.75;81.33;99997.78;5069519;28;20032;-69
2023/04/17 05:13:29;;;;;;;7.45;6.20;;;;;;;12.74;81.27;99997.94;5087926;28;20036;-69
2023/04/17 05:15:54;;;;;;;9.07;6.38;;;;;;;12.76;81.33;100001.31;5064227;28;20395;-69
2023/04/17 05:18:20;;;;;;;7.30;6.32;;;;;;;12.81;81.63;99999.88;5085189;28;20024;-69
2023/04/17 05:20:46;;;;;;;8.68;6.65;;;;;;;12.84;81.45;100004.09;5087315;28;20101;-72
2023/04/17 05:23:11;;;;;;;9.20;6.75;;;;;;;12.82;81.42;100006.06;5087576;28;20059;-72
2023/04/17 05:25:36;;;;;;;9.38;6.43;;;;;;;12.87;81.68;100007.28;5087619;28;20023;-72
2023/04/17 05:28:02;;;;;;;7.30;5.88;;;;;;;12.89;81.91;100010.69;5087527;28;20533;-72
2023/04/17 05:30:28;;;;;;;9.77;7.05;;;;;;;12.80;82.01;99994.63;5087774;28;20028;-72
2023/04/17 05:32:53;;;;;;;10.93;7.18;;;;;;;12.91;81.88;100002.44;5087895;28;20093;-72
2023/04/17 05:35:19;;;;;;;8.05;6.50;;;;;;;12.97;81.14;100009.91;5067442;28;20036;-72
2023/04/17 05:37:44;;;;;;;11.05;6.18;;;;;;;12.96;80.78;100006.34;5087506;28;20040;-72
2023/04/17 05:40:10;;;;;;;9.63;5.95;;;;;;;13.03;80.36;100017.38;5087254;28;20020;-72
2023/04/17 05:42:36;;;;;;;8.40;6.30;;;;;;;13.02;80.30;100010.28;5087397;28;20036;-72
2023/04/17 05:45:02;;;;;;;8.48;6.22;;;;;;;13.07;80.68;100013.38;5085009;28;20081;-72
2023/04/17 05:47:27;;;;;;;8.88;6.00;;;;;;;13.09;80.56;100011.38;5087849;28;20035;-72
2023/04/17 05:49:56;;;;;;;8.52;6.50;;;;;;;13.03;80.22;99993.97;5084153;28;20032;-72
2023/04/17 05:52:23;;;;;;;7.30;6.10;;;;;;;13.16;80.13;100023.19;5084625;28;20039;-72
2023/04/17 05:54:48;;;;;;;10.88;6.68;;;;;;;13.21;79.87;100018.16;5083900;28;20036;-72
2023/04/17 05:57:14;;;;;;;8.75;6.63;;;;;;;13.12;79.42;100005.63;5082724;28;20365;-72
2023/04/17 05:59:39;;;;;;;9.00;6.13;;;;;;;13.22;79.76;100017.19;5087731;28;20080;-72
2023/04/17 06:02:06;;;;;;;8.10;6.05;;;;;;;13.18;79.33;100007.72;5089976;28;20037;-72
2023/04/17 06:04:31;;;;;;;8.50;6.55;;;;;;;13.31;79.42;100027.84;5090014;28;20094;-72
2023/04/17 06:06:57;;;;;;;8.82;6.28;;;;;;;13.32;78.98;100026.00;5090529;28;20028;-72
2023/04/17 06:09:22;;;;;;;9.90;6.60;;;;;;;13.43;78.87;100025.72;5090544;28;20043;-72
2023/04/17 06:11:48;;;;;;;9.82;6.20;;;;;;;13.37;78.18;100007.50;5072330;28;20036;-72
2023/04/17 06:14:13;;;;;;;8.93;6.28;;;;;;;13.46;77.86;100012.78;5090493;28;20520;-72
2023/04/17 06:16:39;;;;;;;9.02;6.82;;;;;;;13.44;77.93;100006.69;5072416;28;20036;-72
2023/04/17 06:19:04;;;;;;;10.15;6.28;;;;;;;13.66;78.19;100037.63;5090305;28;20028;-72
2023/04/17 06:21:31;;;;;;;9.70;6.88;;;;;;;13.60;77.81;100011.31;5072392;28;20138;-71
2023/04/17 06:23:56;;;;;;;9.32;6.60;;;;;;;13.70;77.97;100026.34;5088287;28;20036;-69
2023/04/17 06:26:22;;;;;;;7.75;6.18;;;;;;;13.84;77.89;100038.38;5090581;28;20032;-69
2023/04/17 06:28:47;;;;;;;9.00;6.47;;;;;;;13.88;77.96;100037.06;5090595;28;20094;-68
2023/04/17 06:31:13;;;;;;;7.43;5.82;;;;;;;13.90;77.53;100029.66;5090512;28;20055;-69
2023/04/17 06:33:39;;;;;;;11.27;7.03;;;;;;;13.92;76.83;100035.72;5090178;28;20024;-69
2023/04/17 06:36:05;;;;;;;7.70;6.53;;;;;;;14.04;77.29;100037.09;5090432;28;20683;-69
2023/04/17 06:38:30;;;;;;;10.23;6.82;;;;;;;14.19;77.37;100042.72;5090459;28;20024;-68
2023/04/17 06:40:56;;;;;;;11.73;6.38;;;;;;;14.31;75.95;100039.56;5090075;28;20154;-68
2023/04/17 06:43:21;;;;;;;8.68;6.45;;;;;;;14.38;75.48;100050.56;5090506;28;20067;-69
2023/04/17 06:45:47;;;;;;;9.07;6.13;;;;;;;14.52;75.08;100052.59;5090144;28;20043;-68
2023/04/17 06:48:12;;;;;;;6.82;6.07;;;;;;;14.56;74.97;100049.41;5071613;28;20840;-68
2023/04/17 06:50:38;;;;;;;8.73;6.53;;;;;;;14.57;74.93;100039.47;5090130;28;20084;-69
2023/04/17 06:53:03;;;;;;;8.82;6.20;;;;;;;14.70;74.71;100048.75;5090265;28;20039;-69
2023/04/17 06:55:29;;;;;;;8.32;6.22;;;;;;;14.70;73.95;100020.91;5090439;28;20471;-69
2023/04/17 06:57:54;;;;;;;8.57;5.72;;;;;;;14.88;73.18;100033.25;5089951;28;20039;-69
2023/04/17 07:00:20;;;;;;;11.20;5.53;;;;;;;14.90;72.96;100028.50;5089772;28;20040;-68
2023/04/17 07:02:46;;;;;;;6.45;5.20;;;;;;;14.91;72.36;100003.19;5090129;28;20032;-69
2023/04/17 07:05:12;;;;;;;6.95;5.10;;;;;;;15.30;71.49;100058.19;5089817;28;20024;-68
2023/04/17 07:07:38;;;;;;;7.65;5.40;;;;;;;15.40;70.26;100063.44;5089802;28;20079;-69
2023/04/17 07:10:05;;;;;;;9.27;5.53;;;;;;;15.39;70.02;100059.91;5088904;28;20028;-69
2023/04/17 07:12:30;;;;;;;7.28;5.57;;;;;;;15.37;70.13;100070.03;5071488;28;20057;-69
2023/04/17 07:14:56;;;;;;;7.80;5.15;;;;;;;15.33;70.12;100044.34;5089746;28;20042;-69
2023/04/17 07:17:21;;;;;;;6.20;5.35;;;;;;;15.35;70.47;100046.88;5071246;28;20101;-68
2023/04/17 07:19:47;;;;;;;8.07;5.47;;;;;;;15.36;70.88;100060.25;5089290;28;20040;-69
2023/04/17 07:22:13;;;;;;;5.95;5.07;;;;;;;15.43;70.41;100063.94;5071506;28;20068;-68
2023/04/17 07:24:38;;;;;;;10.55;5.55;;;;;;;15.24;70.64;100025.59;5082592;28;20411;-68
2023/04/17 07:27:06;;;;;;;7.28;5.35;;;;;;;15.43;70.83;100057.69;5088925;28;20531;-68
2023/04/17 07:29:32;;;;;;;5.38;4.88;;;;;;;15.42;70.80;100051.44;5089860;28;20028;-69
2023/04/17 07:31:57;;;;;;;10.35;5.10;;;;;;;15.36;71.19;100062.94;5089318;28;20158;-69
2023/04/17 07:34:25;;;;;;;7.00;5.32;;;;;;;15.43;70.58;100053.13;5089252;28;20050;-69
2023/04/17 07:36:51;;;;;;;6.05;4.75;;;;;;;15.42;70.96;100067.63;5078825;28;20120;-69
2023/04/17 07:39:17;;;;;;;6.00;4.95;;;;;;;15.51;71.50;100055.81;5088456;28;20472;-69
2023/04/17 07:41:43;;;;;;;9.65;5.47;;;;;;;15.65;70.42;100052.41;5088857;28;20077;-69
2023/04/17 07:44:08;;;;;;;10.20;5.25;;;;;;;15.82;69.25;100064.84;5089071;28;20054;-69
2023/04/17 07:46:34;;;;;;;7.95;5.32;;;;;;;16.08;68.51;100059.16;5088367;28;20136;-69
2023/04/17 07:48:59;;;;;;;7.85;4.80;;;;;;;16.37;67.24;100067.47;5088858;28;20032;-69
2023/04/17 07:51:25;;;;;;;9.35;5.00;;;;;;;16.70;65.11;100071.69;5088338;28;20054;-72
2023/04/17 07:53:50;;;;;;;5.88;3.85;;;;;;;16.86;63.20;100066.16;5070819;28;20036;-72
2023/04/17 07:56:16;;;;;;;10.25;4.88;;;;;;;17.11;61.88;100070.38;5088555;28;20028;-72
2023/04/17 07:58:43;;;;;;;6.32;4.13;;;;;;;17.40;60.73;100070.44;5088894;28;20024;-69
2023/04/17 08:01:09;;;;;;;6.95;4.68;;;;;;;17.47;59.87;100082.25;5070284;28;20086;-72
2023/04/17 08:03:35;;;;;;;5.57;4.18;;;;;;;17.65;58.83;100073.78;5088570;28;20549;-72
2023/04/17 08:06:00;;;;;;;5.95;4.03;;;;;;;17.74;58.72;100065.34;5088616;28;20036;-72
2023/04/17 08:08:26;;;;;;;7.75;4.70;;;;;;;17.86;59.37;100050.31;5088502;28;20036;-72
2023/04/17 08:10:51;;;;;;;10.02;4.22;;;;;;;18.17;59.00;100049.25;5070219;28;20498;-72
2023/04/17 08:13:17;;;;;;;7.10;4.63;;;;;;;18.64;56.86;100077.63;5088747;28;20424;-72
2023/04/17 08:15:42;;;;;;;15.32;4.82;;;;;;;19.00;55.67;100072.16;5088327;28;20111;-72
2023/04/17 08:18:10;;;;;;;10.27;4.80;;;;;;;19.10;54.93;100064.50;5070249;28;20113;-72
2023/04/17 08:20:36;;;;;;;10.35;4.05;;;;;;;19.23;54.16;100079.06;5088051;28;20047;-72
2023/04/17 08:23:03;;;;;;;8.52;4.35;;;;;;;19.33;54.72;100079.63;5088469;28;20110;-72
2023/04/17 08:25:29;;;;;;;10.20;4.15;;;;;;;19.87;52.60;100071.63;5086356;28;20066;-72
2023/04/17 08:27:54;;;;;;;9.63;4.47;;;;;;;20.62;50.37;100060.69;5088306;28;20478;-72
2023/04/17 08:30:21;;;;;;;5.47;3.90;;;;;;;21.54;48.09;100076.16;5081153;28;20075;-71
2023/04/17 08:32:47;;;;;;;5.43;4.25;;;;;;;22.30;46.41;100064.44;5083660;28;20023;-72
2023/04/17 08:35:14;;;;;;;7.00;3.58;;;;;;;23.37;44.76;100074.38;5068320;28;20063;-72
2023/04/17 08:37:41;;;;;;;6.03;3.83;;;;;;;23.56;43.71;100089.81;5068689;28;20085;-71
2023/04/17 08:40:11;;;;;;;8.43;4.15;;;;;;;23.66;42.63;100084.66;5087912;28;20056;-72
2023/04/17 08:42:39;;;;;;;10.00;4.43;;;;;;;23.73;42.62;100085.44;5087806;28;20026;-72
2023/04/17 08:45:06;;;;;;;7.70;4.40;;;;;;;23.76;42.82;100090.47;5069317;28;20035;-72
2023/04/17 08:47:33;;;;;;;7.13;4.20;;;;;;;23.56;42.84;100084.31;5087875;28;20024;-71
2023/04/17 08:50:07;;;;;;;8.00;4.53;;;;;;;22.94;43.87;100099.91;5087920;28;20111;-72
2023/04/17 08:52:34;;;;;;;7.95;4.45;;;;;;;22.41;44.86;100093.84;5086260;28;20741;-68
2023/04/17 08:55:00;;;;;;;10.80;4.57;;;;;;;22.05;45.93;100086.16;5087973;28;20115;-69
2023/04/17 08:57:26;;;;;;;6.70;4.85;;;;;;;21.62;46.83;100087.69;5087467;28;20351;-68
2023/04/17 08:59:51;;;;;;;8.43;4.97;;;;;;;21.27;47.85;100099.84;5087868;28;20018;-68
2023/04/17 09:02:16;;;;;;;9.68;5.07;;;;;;;20.75;48.94;100105.19;5087063;28;20024;-69
2023/04/17 09:04:46;;;;;;;9.85;4.45;;;;;;;20.42;50.10;100100.66;5086502;28;20109;-71
2023/04/17 09:07:14;;;;;;;12.27;5.30;;;;;;;20.07;50.99;100089.78;5084839;28;20166;-72
2023/04/17 09:09:49;;;;;;;8.65;4.65;;;;;;;19.86;52.44;100102.59;5086919;28;20028;-72
2023/04/17 09:12:15;;;;;;;9.75;5.40;;;;;;;19.54;53.07;100098.59;5087233;28;20145;-72
2023/04/17 09:14:41;;;;;;;9.48;4.68;;;;;;;19.24;53.96;100098.94;5086708;28;20028;-71
2023/04/17 09:17:07;;;;;;;6.13;4.95;;;;;;;19.00;54.97;100105.63;5087226;28;20035;-71
2023/04/17 09:19:32;;;;;;;8.48;5.20;;;;;;;18.58;55.90;100075.69;5086783;28;20015;-71
2023/04/17 09:22:16;;;;;;;9.15;4.68;;;;;;;18.36;57.08;100083.94;5086861;28;20066;-71
2023/04/17 09:24:43;;;;;;;;;;;;;;;18.35;58.07;100099.41;5069183;28;20054;-71
2023/04/17 09:27:22;;;;;;;8.38;4.85;;;;;;;18.25;58.92;100104.25;5086851;28;19927;-72
2023/04/17 09:30:02;;;;;;;8.50;4.70;;;;;;;18.16;58.87;100097.28;5087072;28;20031;-71
2023/04/17 09:32:30;;;;;;;7.78;4.90;;;;;;;18.03;59.35;100095.19;5068413;28;20475;-71
2023/04/17 09:34:58;;;;;;;5.53;4.30;;;;;;;18.03;59.65;100103.34;5086411;28;20028;-71
2023/04/17 09:37:24;;;;;;;7.63;4.85;;;;;;;17.98;59.88;100094.94;5086862;28;20036;-71
2023/04/17 09:39:58;;;;;;;5.35;4.50;;;;;;;17.82;60.40;100084.28;5068515;28;20384;-71
2023/04/17 09:42:24;;;;;;;6.22;4.18;;;;;;;17.91;61.26;100101.31;5086574;28;20111;-71
2023/04/17 09:44:49;;;;;;;7.43;4.75;;;;;;;17.82;61.21;100096.97;5086725;28;20042;-71
2023/04/17 09:47:18;;;;;;;5.25;3.72;;;;;;;17.79;60.79;100094.66;5086658;28;20028;-71
2023/04/17 09:49:51;;;;;;;6.30;4.22;;;;;;;17.72;61.12;100096.41;5086707;28;20118;-71
2023/04/17 09:52:17;;;;;;;6.95;3.80;;;;;;;17.71;61.31;100092.84;5086525;28;20016;-71
2023/04/17 09:54:45;;;;;;;4.90;3.95;;;;;;;17.72;61.04;100078.28;5086710;28;20145;-71
2023/04/17 09:57:11;;;;;;;6.22;4.32;;;;;;;17.82;61.52;100088.84;5086680;28;20034;-71
2023/04/17 09:59:43;;;;;;;10.90;4.15;;;;;;;17.97;61.41;100089.69;5086295;28;20027;-71
2023/04/17 10:02:11;;;;;;;6.82;3.92;;;;;;;18.03;60.49;100097.09;5068219;28;20039;-71
2023/04/17 10:04:43;;;;;;;8.95;3.90;;;;;;;18.06;60.24;100088.59;5086453;28;20028;-68
2023/04/17 10:07:09;;;;;;;5.43;3.90;;;;;;;18.13;59.84;100094.94;5086317;28;20043;-69
2023/04/17 10:09:35;;;;;;;6.82;4.13;;;;;;;18.19;60.58;100079.75;5086699;28;20024;-69
2023/04/17 10:12:03;;;;;;;5.40;4.40;;;;;;;18.18;60.55;100064.50;5068183;28;20028;-68
2023/04/17 10:14:35;;;;;;;9.13;3.90;;;;;;;18.32;60.34;100078.06;5086114;28;20467;-68
2023/04/17 10:17:24;;;;;;;5.68;3.83;;;;;;;18.39;59.54;100079.03;5086286;28;20031;-68
2023/04/17 10:19:50;;;;;;;6.72;4.00;;;;;;;18.38;59.88;100061.03;5086207;28;20012;-68
2023/04/17 10:22:19;;;;;;;6.50;4.38;;;;;;;18.55;60.13;100084.22;5068300;28;20515;-68
2023/04/17 10:24:47;;;;;;;7.35;4.05;;;;;;;18.46;59.84;100079.94;5086209;28;20035;-68
2023/04/17 10:27:25;;;;;;;7.18;3.83;;;;;;;18.58;59.38;100083.84;5086589;28;20092;-68
2023/04/17 10:29:57;;;;;;;9.27;3.92;;;;;;;18.53;59.93;100083.56;5086667;28;20032;-68
2023/04/17 10:32:27;;;;;;;8.48;3.95;;;;;;;18.54;59.89;100070.84;5086065;28;20080;-68
2023/04/17 10:34:57;;;;;;;6.97;3.72;;;;;;;18.54;59.76;100071.66;5086194;28;20028;-68
2023/04/17 10:37:52;;;;;;;7.18;4.38;;;;;;;18.52;60.30;100071.03;5085793;28;20032;-68
2023/04/17 10:40:26;;;;;;;6.22;3.58;;;;;;;18.18;59.94;100064.50;5075074;28;20119;-68
2023/04/17 10:43:21;;;;;;;6.82;3.65;;;;;;;18.38;59.73;100082.75;5086433;28;20031;-68
2023/04/17 10:45:56;;;;;;;6.63;3.35;;;;;;;18.40;59.06;100077.97;5087464;28;20028;-68
2023/04/17 10:48:27;;;;;;;5.95;4.10;;;;;;;18.27;60.74;100060.63;5089557;28;20039;-68
2023/04/17 10:50:56;;;;;;;7.05;3.63;;;;;;;18.09;61.12;100031.22;5071663;28;20057;-68
2023/04/17 10:54:05;;;;;;;7.07;3.58;;;;;;;18.47;60.11;100087.03;5089738;28;20537;-68
2023/04/17 10:56:38;;;;;;;5.72;3.78;;;;;;;18.33;60.23;100049.03;4971102;28;20081;-68
2023/04/17 10:59:04;;;;;;;8.82;3.92;;;;;;;18.52;60.99;100073.75;5061445;28;20075;-67
2023/04/17 11:01:46;;;;;;;4.95;3.80;;;;;;;18.56;60.18;100075.03;5089397;28;20056;-69
2023/04/17 11:04:19;;;;;;;6.95;4.00;;;;;;;18.63;61.00;100084.09;5089668;28;20024;-68
2023/04/17 11:06:45;;;;;;;7.28;3.65;;;;;;;18.68;59.74;100072.66;5089448;28;20036;-67
2023/04/17 11:09:11;;;;;;;6.32;3.90;;;;;;;18.69;60.49;100077.91;5089376;28;20034;-69
2023/04/17 11:11:41;;;;;;;6.07;3.80;;;;;;;18.72;59.73;100080.22;5089509;28;20407;-68
2023/04/17 11:14:09;;;;;;;5.40;3.95;;;;;;;18.68;60.69;100081.66;5089611;28;20085;-68
2023/04/17 11:16:37;;;;;;;4.63;3.45;;;;;;;18.61;60.89;100093.47;5089529;28;20417;-68
2023/04/17 11:19:05;;;;;;;8.13;4.53;;;;;;;18.43;60.94;100064.00;5089282;28;20491;-67
2023/04/17 11:21:31;;;;;;;7.90;4.07;;;;;;;18.52;60.72;100079.19;5088867;28;20044;-67
2023/04/17 11:24:01;;;;;;;8.10;4.13;;;;;;;18.54;61.94;100077.09;5089348;28;21138;-68
2023/04/17 11:26:26;;;;;;;7.00;4.30;;;;;;;18.53;62.33;100091.72;5088946;28;20035;-67
2023/04/17 11:28:52;;;;;;;8.63;4.18;;;;;;;18.50;61.63;100086.66;5088933;28;20035;-68